Weather at Tsairi Military Hospital Helipad

Public forecast

Using degrees Celsius for public forecast. Weather courtesy of forecast.io.

Closest aviation weather report (METAR) to Tsairi Military Hospital Helipad

Report is more than 6 hours old.

Closest report is Diagoras Airport, 5.7 nm (10.5 km) W.

2022/11/14 15:20 (retrieved 2 years ago)

LGRP 141520Z 22005KT CAVOK 20/11 Q1017 NOSIG

Closest aviation forecast (TAF) to Tsairi Military Hospital Helipad

Forecast is more than 12 hours old.

Closest forecast is Diagoras Airport, 5.7 nm (10.5 km) W.

2023/02/22 18:13 (retrieved 1 year ago)

TAF LGRP 221700Z 2218/2318 VRB05KT 9999 FEW016 PROB40 2222/2306 3000 BR SCT006 BECMG 2315/2317 27008KT